createdAt,value
2022-10-11T00:00:05.313Z,102223.06
2022-10-11T00:02:32.155Z,102214.47
2022-10-11T00:05:01.975Z,102211.22
2022-10-11T00:07:28.931Z,102218.59
2022-10-11T00:09:55.884Z,102222.34
2022-10-11T00:12:22.690Z,102225.22
2022-10-11T00:14:49.568Z,102224.66
2022-10-11T00:17:17.220Z,102224.22
2022-10-11T00:19:44.361Z,102212.94
2022-10-11T00:22:11.516Z,102220.00
2022-10-11T00:24:38.714Z,102221.00
2022-10-11T00:27:15.949Z,102216.69
2022-10-11T00:29:42.809Z,102224.84
2022-10-11T00:32:09.719Z,102232.06
2022-10-11T00:34:36.836Z,102226.91
2022-10-11T00:37:10.943Z,102229.84
2022-10-11T00:39:38.207Z,102226.47
2022-10-11T00:42:05.237Z,102222.53
2022-10-11T00:44:33.802Z,102234.22
2022-10-11T00:47:13.858Z,102236.97
2022-10-11T00:49:44.700Z,102238.88
2022-10-11T00:52:14.481Z,102234.84
2022-10-11T00:54:43.795Z,102240.94
2022-10-11T00:57:22.756Z,102244.31
2022-10-11T00:59:52.891Z,102241.69
2022-10-11T01:02:21.217Z,102236.50
2022-10-11T01:04:57.312Z,102244.56
2022-10-11T01:07:33.595Z,102243.03
2022-10-11T01:10:00.794Z,102243.03
2022-10-11T01:12:30.460Z,102241.22
2022-10-11T01:15:06.937Z,102248.28
2022-10-11T01:17:33.748Z,102242.28
2022-10-11T01:20:32.197Z,102244.47
2022-10-11T01:23:32.991Z,102249.06
2022-10-11T01:26:26.786Z,102248.59
2022-10-11T01:29:18.212Z,102249.81
2022-10-11T01:32:11.025Z,102231.88
2022-10-11T01:34:57.450Z,102242.81
2022-10-11T01:37:36.558Z,102234.28
2022-10-11T01:40:18.508Z,102236.22
2022-10-11T01:42:46.826Z,102237.53
2022-10-11T01:45:17.455Z,102241.03
2022-10-11T01:47:46.005Z,102233.31
2022-10-11T01:50:39.083Z,102235.50
2022-10-11T01:53:37.486Z,102235.50
2022-10-11T01:56:22.926Z,102232.88
2022-10-11T01:59:08.485Z,102235.75
2022-10-11T02:01:44.345Z,102222.34
2022-10-11T02:04:29.757Z,102232.19
2022-10-11T02:07:13.618Z,102237.59
2022-10-11T02:09:47.099Z,102230.63
2022-10-11T02:12:20.187Z,102218.66
2022-10-11T02:14:50.378Z,102217.00
2022-10-11T02:17:22.310Z,102225.16
2022-10-11T02:19:53.229Z,102229.69
2022-10-11T02:22:24.722Z,102220.94
2022-10-11T02:24:55.746Z,102219.31
2022-10-11T02:27:28.105Z,102219.53
2022-10-11T02:29:59.977Z,102213.56
2022-10-11T02:32:29.860Z,102222.66
2022-10-11T02:35:00.297Z,102218.22
2022-10-11T02:37:36.281Z,102218.09
2022-10-11T02:40:23.775Z,102215.22
2022-10-11T02:43:05.159Z,102216.06
2022-10-11T02:45:37.410Z,102218.00
2022-10-11T02:48:06.774Z,102220.00
2022-10-11T02:50:34.166Z,102222.06
2022-10-11T02:53:00.900Z,102211.16
2022-10-11T02:55:27.711Z,102218.22
2022-10-11T02:57:54.494Z,102216.59
2022-10-11T03:00:21.339Z,102219.06
2022-10-11T03:02:48.240Z,102218.97
2022-10-11T03:05:15.017Z,102212.28
2022-10-11T03:07:41.901Z,102220.06
2022-10-11T03:10:09.106Z,102218.38
2022-10-11T03:12:36.076Z,102217.53
2022-10-11T03:15:02.838Z,102215.75
2022-10-11T03:17:36.606Z,102219.22
2022-10-11T03:20:38.444Z,102217.66
2022-10-11T03:23:31.943Z,102217.53
2022-10-11T03:25:58.777Z,102221.00
2022-10-11T03:28:25.541Z,102211.53
2022-10-11T03:30:52.706Z,102214.44
2022-10-11T03:33:20.320Z,102211.91
2022-10-11T03:35:48.282Z,102217.28
2022-10-11T03:38:18.715Z,102207.00
2022-10-11T03:40:45.761Z,102210.75
2022-10-11T03:43:13.312Z,102207.38
2022-10-11T03:45:42.582Z,102210.97
2022-10-11T03:48:09.716Z,102207.63
2022-10-11T03:50:37.734Z,102218.38
2022-10-11T03:53:06.438Z,102209.91
2022-10-11T03:55:33.215Z,102210.84
2022-10-11T03:57:59.952Z,102205.84
2022-10-11T04:00:26.778Z,102213.00
2022-10-11T04:02:53.635Z,102222.81
2022-10-11T04:05:20.653Z,102210.75
2022-10-11T04:07:47.430Z,102211.69
2022-10-11T04:10:14.481Z,102223.91
2022-10-11T04:12:41.312Z,102229.16
2022-10-11T04:15:08.427Z,102219.69
2022-10-11T04:17:35.210Z,102227.75
2022-10-11T04:20:01.929Z,102235.63
2022-10-11T04:22:28.751Z,102227.47
2022-10-11T04:24:55.565Z,102225.59
2022-10-11T04:27:22.501Z,102226.66
2022-10-11T04:29:49.263Z,102237.19
2022-10-11T04:32:15.989Z,102233.00
2022-10-11T04:34:42.737Z,102230.47
2022-10-11T04:37:15.590Z,102235.84
2022-10-11T04:39:42.408Z,102228.22
2022-10-11T04:42:09.146Z,102232.75
2022-10-11T04:44:36.021Z,102233.72
2022-10-11T04:47:02.846Z,102235.38
2022-10-11T04:49:29.580Z,102245.06
2022-10-11T04:51:56.430Z,102240.63
2022-10-11T04:54:26.041Z,102242.56
2022-10-11T04:56:52.833Z,102243.63
2022-10-11T04:59:19.609Z,102238.50
2022-10-11T05:01:46.419Z,102248.78
2022-10-11T05:04:13.530Z,102247.34
2022-10-11T05:06:40.397Z,102242.31
2022-10-11T05:09:07.207Z,102245.44
2022-10-11T05:11:33.920Z,102247.06
2022-10-11T05:14:00.818Z,102251.50
2022-10-11T05:16:28.302Z,102259.28
2022-10-11T05:18:55.129Z,102254.97
2022-10-11T05:21:24.735Z,102252.69
2022-10-11T05:23:53.214Z,102258.81
2022-10-11T05:26:21.386Z,102259.53
2022-10-11T05:28:48.448Z,102259.53
2022-10-11T05:31:16.383Z,102256.16
2022-10-11T05:33:43.137Z,102254.13
2022-10-11T05:36:10.688Z,102261.81
2022-10-11T05:38:37.699Z,102264.44
2022-10-11T05:41:05.646Z,102265.63
2022-10-11T05:43:32.562Z,102265.75
2022-10-11T05:45:59.460Z,102263.13
2022-10-11T05:48:26.973Z,102274.59
2022-10-11T05:51:03.302Z,102276.28
2022-10-11T05:53:30.480Z,102264.91
2022-10-11T05:55:57.870Z,102274.69
2022-10-11T05:58:25.052Z,102274.69
2022-10-11T06:00:52.120Z,102279.97
2022-10-11T06:03:21.217Z,102280.94
2022-10-11T06:05:48.024Z,102283.22
2022-10-11T06:08:16.126Z,102278.66
2022-10-11T06:10:42.945Z,102270.75
2022-10-11T06:13:09.758Z,102285.00
2022-10-11T06:15:39.310Z,102298.16
2022-10-11T06:18:06.081Z,102285.94
2022-10-11T06:20:32.969Z,102293.00
2022-10-11T06:23:00.121Z,102304.38
2022-10-11T06:25:27.059Z,102301.00
2022-10-11T06:27:53.943Z,102307.25
2022-10-11T06:30:20.696Z,102308.19
2022-10-11T06:32:47.625Z,102299.56
2022-10-11T06:35:14.680Z,102299.56
2022-10-11T06:37:41.537Z,102303.03
2022-10-11T06:40:09.083Z,102303.78
2022-10-11T06:42:37.339Z,102316.78
2022-10-11T06:45:04.508Z,102312.28
2022-10-11T06:47:31.240Z,102312.16
2022-10-11T06:49:58.576Z,102324.38
2022-10-11T06:52:25.399Z,102315.63
2022-10-11T06:54:52.147Z,102317.53
2022-10-11T06:57:22.017Z,102319.31
2022-10-11T06:59:48.908Z,102323.63
2022-10-11T07:02:15.825Z,102313.94
2022-10-11T07:04:42.624Z,102332.38
2022-10-11T07:07:15.247Z,102327.94
2022-10-11T07:09:42.162Z,102332.38
2022-10-11T07:12:09.361Z,102337.75
2022-10-11T07:14:36.274Z,102338.59
2022-10-11T07:17:03.457Z,102335.94
2022-10-11T07:19:30.422Z,102338.69
2022-10-11T07:21:57.223Z,102347.44
2022-10-11T07:24:23.978Z,102348.38
2022-10-11T07:26:51.069Z,102346.72
2022-10-11T07:29:18.118Z,102348.50
2022-10-11T07:31:44.996Z,102349.47
2022-10-11T07:34:12.207Z,102343.69
2022-10-11T07:36:39.022Z,102334.22
2022-10-11T07:39:07.724Z,102341.16
2022-10-11T07:41:35.084Z,102348.84
2022-10-11T07:44:02.008Z,102347.78
2022-10-11T07:46:28.788Z,102354.81
2022-10-11T07:48:55.721Z,102339.78
2022-10-11T07:51:24.039Z,102347.31
2022-10-11T07:53:56.058Z,102346.72
2022-10-11T07:56:29.431Z,102346.41
2022-10-11T07:59:03.767Z,102350.34
2022-10-11T08:01:31.437Z,102346.06
2022-10-11T08:03:58.998Z,102337.84
2022-10-11T08:06:30.690Z,102347.28
2022-10-11T08:09:01.200Z,102356.03
2022-10-11T08:11:34.778Z,102351.81
2022-10-11T08:14:02.597Z,102347.28
2022-10-11T08:16:29.490Z,102356.63
2022-10-11T08:18:57.355Z,102349.34
2022-10-11T08:21:24.643Z,102347.44
2022-10-11T08:23:51.394Z,102353.28
2022-10-11T08:26:18.771Z,102350.31
2022-10-11T08:28:45.746Z,102355.25
2022-10-11T08:31:14.901Z,102365.53
2022-10-11T08:33:42.071Z,102362.66
2022-10-11T08:36:10.211Z,102352.94
2022-10-11T08:38:38.181Z,102359.69
2022-10-11T08:41:33.654Z,102358.69
2022-10-11T08:44:13.342Z,102359.19
2022-10-11T08:46:43.398Z,102360.75
2022-10-11T08:49:13.757Z,102360.28
2022-10-11T08:52:09.048Z,102362.66
2022-10-11T08:54:45.600Z,102358.13
2022-10-11T08:57:25.062Z,102368.91
2022-10-11T08:59:59.296Z,102369.25
2022-10-11T09:03:03.053Z,102359.88
2022-10-11T09:05:25.886Z,102356.78
2022-10-11T09:08:23.922Z,102357.75
2022-10-11T09:11:04.647Z,102363.97
2022-10-11T09:14:02.104Z,102352.56
2022-10-11T09:17:01.589Z,102356.84
2022-10-11T09:20:10.244Z,102353.34
2022-10-11T09:22:56.124Z,102352.19
2022-10-11T09:25:58.361Z,102351.56
2022-10-11T09:29:06.092Z,102352.16
2022-10-11T09:31:33.896Z,102352.00
2022-10-11T09:34:11.969Z,102350.09
2022-10-11T09:36:55.176Z,102348.75
2022-10-11T09:39:46.068Z,102343.91
2022-10-11T09:42:35.545Z,102343.66
2022-10-11T09:45:06.285Z,102350.22
2022-10-11T09:47:37.211Z,102343.16
2022-10-11T09:50:16.545Z,102350.94
2022-10-11T09:52:51.422Z,102355.13
2022-10-11T09:55:53.858Z,102351.13
2022-10-11T09:58:37.690Z,102355.06
2022-10-11T10:01:12.543Z,102352.75
2022-10-11T10:03:42.162Z,102363.63
2022-10-11T10:06:17.510Z,102349.75
2022-10-11T10:08:50.291Z,102355.38
2022-10-11T10:11:18.769Z,102359.06
2022-10-11T10:13:54.556Z,102356.59
2022-10-11T10:16:30.886Z,102355.81
2022-10-11T10:19:05.259Z,102355.13
2022-10-11T10:21:36.278Z,102360.72
2022-10-11T10:24:09.807Z,102357.56
2022-10-11T10:26:36.704Z,102352.81
2022-10-11T10:29:09.401Z,102364.53
2022-10-11T10:34:56.988Z,102353.81
2022-10-11T10:37:34.910Z,102355.94
2022-10-11T10:40:07.705Z,102352.75
2022-10-11T10:42:34.931Z,102352.91
2022-10-11T10:45:13.061Z,102348.31
2022-10-11T10:47:59.461Z,102342.59
2022-10-11T10:50:39.994Z,102343.75
2022-10-11T10:53:27.613Z,102351.25
2022-10-11T10:56:06.572Z,102340.13
2022-10-11T10:58:53.404Z,102334.13
2022-10-11T11:01:34.155Z,102331.88
2022-10-11T11:04:27.039Z,102332.19
2022-10-11T11:07:20.261Z,102335.25
2022-10-11T11:10:16.524Z,102325.38
2022-10-11T11:12:54.257Z,102323.16
2022-10-11T11:15:43.684Z,102327.31
2022-10-11T11:18:28.661Z,102327.44
2022-10-11T11:21:00.026Z,102329.25
2022-10-11T11:23:43.824Z,102319.50
2022-10-11T11:26:19.903Z,102317.53
2022-10-11T11:29:02.768Z,102311.81
2022-10-11T11:32:10.337Z,102308.75
2022-10-11T11:34:52.254Z,102297.72
2022-10-11T11:37:34.332Z,102309.00
2022-10-11T11:40:35.241Z,102297.84
2022-10-11T11:43:07.614Z,102295.59
2022-10-11T11:46:09.815Z,102303.13
2022-10-11T11:48:55.655Z,102302.94
2022-10-11T11:51:30.719Z,102295.72
2022-10-11T11:54:22.635Z,102289.00
2022-10-11T11:57:03.274Z,102284.63
2022-10-11T11:59:51.654Z,102284.63
2022-10-11T12:02:56.582Z,102279.19
2022-10-11T12:05:32.017Z,102277.25
2022-10-11T12:08:08.473Z,102277.38
2022-10-11T12:10:37.897Z,102267.75
2022-10-11T12:13:34.898Z,102264.25
2022-10-11T12:16:04.493Z,102271.94
2022-10-11T12:18:32.558Z,102266.31
2022-10-11T12:21:22.225Z,102261.72
2022-10-11T12:23:52.817Z,102255.13
2022-10-11T12:26:28.391Z,102255.22
2022-10-11T12:29:18.945Z,102260.06
2022-10-11T12:31:55.968Z,102258.66
2022-10-11T12:37:33.416Z,102262.09
2022-10-11T12:40:37.286Z,102253.16
2022-10-11T12:43:16.253Z,102251.19
2022-10-11T12:45:52.076Z,102254.50
2022-10-11T12:48:42.582Z,102257.75
2022-10-11T12:51:34.156Z,102253.81
2022-10-11T12:54:42.200Z,102251.53
2022-10-11T12:57:47.630Z,102249.88
2022-10-11T13:00:31.405Z,102242.88
2022-10-11T13:03:04.990Z,102237.72
2022-10-11T13:05:48.766Z,102236.91
2022-10-11T13:08:27.111Z,102227.94
2022-10-11T13:10:57.339Z,102232.97
2022-10-11T13:13:32.275Z,102229.47
2022-10-11T13:16:07.336Z,102221.00
2022-10-11T13:18:34.473Z,102219.31
2022-10-11T13:21:16.578Z,102214.66
2022-10-11T13:23:45.012Z,102209.22
2022-10-11T13:26:11.795Z,102210.75
2022-10-11T13:28:39.075Z,102200.66
2022-10-11T13:31:06.499Z,102198.38
2022-10-11T13:33:44.058Z,102189.28
2022-10-11T13:36:19.707Z,102193.31
2022-10-11T13:38:57.515Z,102183.22
2022-10-11T13:41:28.330Z,102185.53
2022-10-11T13:43:57.545Z,102186.25
2022-10-11T13:46:29.701Z,102182.28
2022-10-11T13:48:59.824Z,102185.63
2022-10-11T13:51:39.527Z,102180.84
2022-10-11T13:54:13.074Z,102179.03
2022-10-11T13:56:43.424Z,102184.19
2022-10-11T13:59:20.450Z,102183.03
2022-10-11T14:01:47.658Z,102189.16
2022-10-11T14:07:51.804Z,102184.19
2022-10-11T14:10:21.856Z,102193.78
2022-10-11T14:13:24.213Z,102183.84
2022-10-11T14:16:11.200Z,102182.19
2022-10-11T14:18:48.941Z,102172.91
2022-10-11T14:21:28.458Z,102169.44
2022-10-11T14:23:58.876Z,102165.97
2022-10-11T14:26:27.539Z,102164.81
2022-10-11T14:29:31.936Z,102160.31
2022-10-11T14:32:07.929Z,102160.19
2022-10-11T14:34:35.602Z,102159.34
2022-10-11T14:37:02.662Z,102155.84
2022-10-11T14:39:31.973Z,102151.19
2022-10-11T14:41:59.558Z,102158.19
2022-10-11T14:44:26.577Z,102154.41
2022-10-11T14:46:54.710Z,102146.25
2022-10-11T14:49:29.256Z,102141.13
2022-10-11T14:51:58.922Z,102135.63
2022-10-11T14:54:29.237Z,102127.84
2022-10-11T14:57:01.806Z,102126.16
2022-10-11T14:59:34.695Z,102125.34
2022-10-11T15:02:05.552Z,102125.19
2022-10-11T15:04:36.459Z,102133.31
2022-10-11T15:07:17.436Z,102129.97
2022-10-11T15:09:45.554Z,102124.00
2022-10-11T15:12:14.402Z,102128.47
2022-10-11T15:14:41.197Z,102130.13
2022-10-11T15:17:22.737Z,102118.69
2022-10-11T15:19:50.927Z,102120.34
2022-10-11T15:22:17.772Z,102104.56
2022-10-11T15:24:49.371Z,102105.03
2022-10-11T15:27:20.027Z,102108.81
2022-10-11T15:29:47.244Z,102098.53
2022-10-11T15:32:14.014Z,102093.53
2022-10-11T15:34:40.791Z,102090.06
2022-10-11T15:37:30.219Z,102092.84
2022-10-11T15:39:59.480Z,102085.03
2022-10-11T15:42:26.297Z,102079.91
2022-10-11T15:44:59.312Z,102079.38
2022-10-11T15:47:26.335Z,102081.19
2022-10-11T15:49:53.112Z,102082.19
2022-10-11T15:52:19.877Z,102077.88
2022-10-11T15:54:46.601Z,102075.88
2022-10-11T15:57:31.024Z,102083.84
2022-10-11T16:00:01.549Z,102087.31
2022-10-11T16:02:28.720Z,102076.06
2022-10-11T16:04:55.477Z,102082.34
2022-10-11T16:07:24.146Z,102078.03
2022-10-11T16:09:50.956Z,102078.03
2022-10-11T16:12:17.843Z,102080.81
2022-10-11T16:14:49.751Z,102074.84
2022-10-11T16:17:26.518Z,102081.16
2022-10-11T16:19:55.041Z,102077.97
2022-10-11T16:22:21.950Z,102082.59
2022-10-11T16:24:50.692Z,102072.31
2022-10-11T16:27:19.013Z,102078.88
2022-10-11T16:29:45.948Z,102077.38
2022-10-11T16:32:12.832Z,102078.50
2022-10-11T16:34:44.474Z,102066.25
2022-10-11T16:37:24.411Z,102065.56
2022-10-11T16:39:53.926Z,102067.53
2022-10-11T16:42:20.780Z,102068.69
2022-10-11T16:44:47.715Z,102063.38
2022-10-11T16:47:17.051Z,102077.75
2022-10-11T16:49:43.824Z,102066.63
2022-10-11T16:52:11.223Z,102062.47
2022-10-11T16:54:38.303Z,102073.22
2022-10-11T16:57:05.092Z,102070.72
2022-10-11T16:59:31.898Z,102071.88
2022-10-11T17:01:58.758Z,102079.97
2022-10-11T17:04:25.540Z,102081.09
2022-10-11T17:06:54.384Z,102075.25
2022-10-11T17:09:21.578Z,102075.59
2022-10-11T17:11:48.426Z,102081.19
2022-10-11T17:14:15.253Z,102084.97
2022-10-11T17:16:42.558Z,102080.13
2022-10-11T17:19:12.421Z,102076.94
2022-10-11T17:21:39.547Z,102074.59
2022-10-11T17:24:07.437Z,102081.19
2022-10-11T17:26:34.256Z,102080.81
2022-10-11T17:29:01.387Z,102070.34
2022-10-11T17:31:29.933Z,102072.47
2022-10-11T17:34:01.052Z,102077.06
2022-10-11T17:36:32.013Z,102073.91
2022-10-11T17:39:00.268Z,102070.72
2022-10-11T17:41:31.812Z,102078.97
2022-10-11T17:43:59.636Z,102076.75
2022-10-11T17:46:27.862Z,102069.25
2022-10-11T17:48:55.779Z,102066.09
2022-10-11T17:51:22.939Z,102060.09
2022-10-11T17:53:51.119Z,102054.13
2022-10-11T17:56:24.041Z,102062.88
2022-10-11T17:58:56.393Z,102063.19
2022-10-11T18:01:25.650Z,102058.19
2022-10-11T18:03:58.497Z,102065.44
2022-10-11T18:06:28.823Z,102061.13
2022-10-11T18:08:57.504Z,102059.63
2022-10-11T18:11:24.679Z,102066.75
2022-10-11T18:13:52.993Z,102061.72
2022-10-11T18:16:22.508Z,102060.06
2022-10-11T18:18:49.360Z,102061.06
2022-10-11T18:21:18.585Z,102060.34
2022-10-11T18:23:46.979Z,102066.78
2022-10-11T18:26:19.168Z,102064.28
2022-10-11T18:28:46.155Z,102066.94
2022-10-11T18:31:16.853Z,102061.94
2022-10-11T18:33:46.138Z,102063.75
2022-10-11T18:36:15.450Z,102056.78
2022-10-11T18:38:46.522Z,102049.94
2022-10-11T18:41:15.493Z,102053.72
2022-10-11T18:43:42.940Z,102060.81
2022-10-11T18:46:12.716Z,102058.47
2022-10-11T18:48:44.335Z,102055.00
2022-10-11T18:51:15.066Z,102049.97
2022-10-11T18:53:42.328Z,102043.84
2022-10-11T18:56:10.835Z,102048.31
2022-10-11T18:58:39.069Z,102050.81
2022-10-11T19:01:12.628Z,102052.78
2022-10-11T19:03:39.525Z,102048.75
2022-10-11T19:06:17.011Z,102048.91
2022-10-11T19:08:52.823Z,102050.00
2022-10-11T19:11:22.349Z,102046.84
2022-10-11T19:14:03.171Z,102057.69
2022-10-11T19:16:30.652Z,102053.69
2022-10-11T19:18:58.079Z,102052.16
2022-10-11T19:21:24.867Z,102053.28
2022-10-11T19:23:52.253Z,102050.94
2022-10-11T19:26:22.302Z,102054.69
2022-10-11T19:28:55.359Z,102050.53
2022-10-11T19:31:22.177Z,102048.03
2022-10-11T19:33:49.776Z,102043.03
2022-10-11T19:36:17.622Z,102050.97
2022-10-11T19:38:46.448Z,102039.81
2022-10-11T19:41:14.028Z,102037.47
2022-10-11T19:43:40.898Z,102045.53
2022-10-11T19:46:09.885Z,102041.09
2022-10-11T19:48:38.296Z,102049.19
2022-10-11T19:51:07.311Z,102031.78
2022-10-11T19:53:34.889Z,102043.06
2022-10-11T19:56:04.499Z,102041.66
2022-10-11T19:58:31.605Z,102043.63
2022-10-11T20:01:10.535Z,102039.44
2022-10-11T20:03:38.263Z,102032.66
2022-10-11T20:06:07.683Z,102037.94
2022-10-11T20:08:35.487Z,102038.78
2022-10-11T20:11:05.428Z,102033.47
2022-10-11T20:13:35.076Z,102028.47
2022-10-11T20:16:06.592Z,102034.44
2022-10-11T20:18:33.544Z,102039.75
2022-10-11T20:21:06.085Z,102035.56
2022-10-11T20:23:33.825Z,102031.81
2022-10-11T20:26:15.818Z,102031.09
2022-10-11T20:28:43.306Z,102038.91
2022-10-11T20:31:15.536Z,102029.28
2022-10-11T20:33:42.855Z,102033.75
2022-10-11T20:36:20.789Z,102038.50
2022-10-11T20:38:49.005Z,102038.50
2022-10-11T20:41:25.078Z,102039.47
2022-10-11T20:43:54.557Z,102038.81
2022-10-11T20:46:24.549Z,102038.22
2022-10-11T20:49:00.396Z,102033.25
2022-10-11T20:51:30.746Z,102034.19
2022-10-11T20:53:59.018Z,102034.50
2022-10-11T20:56:25.942Z,102032.81
2022-10-11T20:58:58.364Z,102046.19
2022-10-11T21:01:28.184Z,102035.78
2022-10-11T21:03:57.968Z,102044.66
2022-10-11T21:06:25.439Z,102048.56
2022-10-11T21:08:54.237Z,102041.75
2022-10-11T21:11:21.068Z,102045.53
2022-10-11T21:13:47.976Z,102048.28
2022-10-11T21:16:16.618Z,102046.06
2022-10-11T21:18:43.354Z,102046.34
2022-10-11T21:21:12.919Z,102044.81
2022-10-11T21:23:40.264Z,102050.38
2022-10-11T21:26:09.972Z,102049.41
2022-10-11T21:28:36.911Z,102052.22
2022-10-11T21:31:08.510Z,102042.72
2022-10-11T21:33:35.475Z,102048.16
2022-10-11T21:36:08.119Z,102048.31
2022-10-11T21:38:35.542Z,102046.75
2022-10-11T21:41:04.042Z,102046.06
2022-10-11T21:43:31.003Z,102049.91
2022-10-11T21:45:58.053Z,102055.38
2022-10-11T21:48:24.826Z,102039.78
2022-10-11T21:50:55.255Z,102047.03
2022-10-11T21:53:22.330Z,102040.06
2022-10-11T21:55:49.076Z,102044.50
2022-10-11T21:58:15.814Z,102035.75
2022-10-11T22:00:42.547Z,102041.03
2022-10-11T22:03:09.442Z,102041.16
2022-10-11T22:05:36.205Z,102033.22
2022-10-11T22:08:02.952Z,102039.09
2022-10-11T22:10:29.859Z,102030.34
2022-10-11T22:12:56.848Z,102026.72
2022-10-11T22:15:23.613Z,102037.41
2022-10-11T22:17:50.338Z,102038.25
2022-10-11T22:20:17.226Z,102037.41
2022-10-11T22:22:43.941Z,102031.44
2022-10-11T22:25:10.705Z,102037.69
2022-10-11T22:27:37.601Z,102028.25
2022-10-11T22:30:04.572Z,102030.16
2022-10-11T22:32:31.357Z,102028.66
2022-10-11T22:34:58.308Z,102021.56
2022-10-11T22:37:26.225Z,102025.19
2022-10-11T22:39:52.978Z,102023.50
2022-10-11T22:42:24.119Z,102018.50
2022-10-11T22:44:53.575Z,102020.00
2022-10-11T22:47:20.406Z,102016.13
2022-10-11T22:49:47.427Z,102017.91
2022-10-11T22:52:14.151Z,102020.56
2022-10-11T22:54:40.866Z,102016.41
2022-10-11T22:57:15.212Z,102006.81
2022-10-11T22:59:41.964Z,102013.06
2022-10-11T23:02:09.073Z,102007.09
2022-10-11T23:04:35.793Z,102002.63
2022-10-11T23:07:04.953Z,102008.19
2022-10-11T23:09:32.072Z,102010.13
2022-10-11T23:11:59.719Z,102005.97
2022-10-11T23:14:26.617Z,102005.81
2022-10-11T23:16:53.916Z,101996.34
2022-10-11T23:19:20.955Z,101993.72
2022-10-11T23:21:47.716Z,101993.03
2022-10-11T23:24:14.515Z,101992.31
2022-10-11T23:26:41.394Z,101993.16
2022-10-11T23:29:08.212Z,101988.00
2022-10-11T23:31:35.036Z,101988.28
2022-10-11T23:34:02.256Z,101983.28
2022-10-11T23:36:29.094Z,101979.13
2022-10-11T23:38:58.719Z,101981.88
2022-10-11T23:41:29.696Z,101982.59
2022-10-11T23:44:00.345Z,101978.84
2022-10-11T23:46:27.153Z,101980.78
2022-10-11T23:48:53.880Z,101979.13
2022-10-11T23:51:25.163Z,101978.41
2022-10-11T23:53:51.927Z,101972.28
2022-10-11T23:56:18.728Z,101977.00
2022-10-11T23:58:45.597Z,101972.69
